AZA477 LIRP-EHAM
Flight info
| Callsign | AZA477 |
|---|---|
| Flight time | 1h 14m |
| Altitude | 40000 |
| Route | SPEZI DCT AOSTA DCT ORSUD DCT MOLUS DCT GILIR DCT PENDU DCT IXILU DCT GIVOR DCT SORAL DCT IBERA DCT RITAX M624 BUB Y28 HELEN |
| Aircraft | MD11/H-SDE1E2E3FGHIJ2J3J4J5M1RWXY/LB1D1 |
Departure
| Time | 2026-05-04 16:18 |
|---|---|
| Airport | Pisa International Airport (LIRP) |
Arrival
| Time | 2026-05-04 17:33 |
|---|---|
| Airport | Amsterdam Airport Schiphol (EHAM) |
| Time | Latitude | Longitude | Altitude | Speed | Heading |
|---|---|---|---|---|---|
| 2026-05-04 15:36 | 43.69760 | 10.39757 | 22 ft | 0 kts | 324° |
| 2026-05-04 16:05 | 43.69741 | 10.39776 | 27 ft | 4 kts | 324° |
| 2026-05-04 16:05 | 43.69720 | 10.39797 | 25 ft | 2 kts | 324° |
| 2026-05-04 16:05 | 43.69707 | 10.39841 | 23 ft | 4 kts | 244° |
| 2026-05-04 16:06 | 43.69716 | 10.39861 | 23 ft | 0 kts | 235° |
| 2026-05-04 16:12 | 43.69703 | 10.39857 | 23 ft | 2 kts | 185° |
| 2026-05-04 16:13 | 43.69692 | 10.39907 | 23 ft | 9 kts | 94° |
| 2026-05-04 16:13 | 43.69650 | 10.40050 | 24 ft | 6 kts | 163° |
| 2026-05-04 16:14 | 43.69480 | 10.40088 | 27 ft | 17 kts | 173° |
| 2026-05-04 16:14 | 43.69367 | 10.40137 | 30 ft | 4 kts | 129° |
| 2026-05-04 16:15 | 43.69335 | 10.40193 | 27 ft | 0 kts | 126° |
| 2026-05-04 16:16 | 43.69330 | 10.40203 | 26 ft | 5 kts | 126° |
| 2026-05-04 16:16 | 43.69252 | 10.40321 | 27 ft | 2 kts | 185° |
| 2026-05-04 16:17 | 43.69231 | 10.40307 | 26 ft | 0 kts | 216° |
| 2026-05-04 16:18 | 43.68164 | 10.39210 | 252 ft | 169 kts | 217° |
| 2026-05-04 16:18 | 43.67206 | 10.38163 | 1353 ft | 186 kts | 217° |
| 2026-05-04 16:19 | 43.64514 | 10.35164 | 5132 ft | 161 kts | 209° |
| 2026-05-04 16:19 | 43.62448 | 10.33668 | 6995 ft | 196 kts | 214° |
| 2026-05-04 16:20 | 43.62060 | 10.26813 | 8053 ft | 290 kts | 297° |
| 2026-05-04 16:20 | 43.64090 | 10.21911 | 9490 ft | 303 kts | 294° |
| 2026-05-04 16:21 | 43.66671 | 10.12978 | 11538 ft | 365 kts | 286° |
| 2026-05-04 16:22 | 43.68158 | 10.06367 | 14227 ft | 361 kts | 285° |
| 2026-05-04 16:22 | 43.70281 | 9.96075 | 17058 ft | 377 kts | 284° |
| 2026-05-04 16:23 | 43.72422 | 9.85421 | 19564 ft | 391 kts | 284° |
| 2026-05-04 16:24 | 43.75390 | 9.70549 | 22501 ft | 410 kts | 284° |
| 2026-05-04 16:25 | 43.77044 | 9.62900 | 23942 ft | 420 kts | 291° |
| 2026-05-04 16:26 | 43.85420 | 9.51334 | 26842 ft | 443 kts | 321° |
| 2026-05-04 16:26 | 43.92959 | 9.43724 | 29040 ft | 452 kts | 319° |
| 2026-05-04 16:27 | 43.97997 | 9.38369 | 30365 ft | 458 kts | 317° |
| 2026-05-04 16:28 | 44.05545 | 9.30233 | 32314 ft | 458 kts | 317° |
| 2026-05-04 16:28 | 44.13052 | 9.22119 | 34270 ft | 452 kts | 316° |
| 2026-05-04 16:29 | 44.22881 | 9.11457 | 36446 ft | 444 kts | 316° |
| 2026-05-04 16:30 | 44.30197 | 9.03485 | 37735 ft | 445 kts | 316° |
| 2026-05-04 16:31 | 44.35045 | 8.98191 | 38651 ft | 443 kts | 316° |
| 2026-05-04 16:31 | 44.42308 | 8.90240 | 39700 ft | 440 kts | 316° |
| 2026-05-04 16:32 | 44.49553 | 8.82233 | 40094 ft | 448 kts | 316° |
| 2026-05-04 16:33 | 44.59264 | 8.71220 | 40109 ft | 449 kts | 316° |
| 2026-05-04 16:34 | 44.66696 | 8.63126 | 40089 ft | 452 kts | 316° |
| 2026-05-04 16:35 | 44.81539 | 8.46688 | 40078 ft | 453 kts | 316° |
| 2026-05-04 16:36 | 44.88966 | 8.38380 | 40107 ft | 454 kts | 316° |
| 2026-05-04 16:37 | 44.96387 | 8.30052 | 40079 ft | 456 kts | 316° |
| 2026-05-04 16:38 | 45.06298 | 8.18888 | 40081 ft | 456 kts | 316° |
| 2026-05-04 16:39 | 45.18688 | 8.04789 | 40093 ft | 456 kts | 316° |
| 2026-05-04 16:40 | 45.28566 | 7.93537 | 40097 ft | 455 kts | 316° |
| 2026-05-04 16:41 | 45.40899 | 7.79427 | 40100 ft | 455 kts | 316° |
| 2026-05-04 16:43 | 45.53254 | 7.65208 | 40124 ft | 458 kts | 316° |
| 2026-05-04 16:43 | 45.60685 | 7.56615 | 40129 ft | 459 kts | 315° |
| 2026-05-04 16:45 | 45.75543 | 7.39339 | 40135 ft | 459 kts | 315° |
| 2026-05-04 16:46 | 45.88348 | 7.25580 | 40105 ft | 462 kts | 320° |
| 2026-05-04 16:47 | 45.98838 | 7.14943 | 40056 ft | 461 kts | 320° |
| 2026-05-04 16:48 | 46.09273 | 7.04203 | 40045 ft | 462 kts | 319° |
| 2026-05-04 16:49 | 46.19728 | 6.93405 | 40048 ft | 463 kts | 319° |
| 2026-05-04 16:50 | 46.30163 | 6.82578 | 40028 ft | 461 kts | 319° |
| 2026-05-04 16:51 | 46.37129 | 6.75320 | 40027 ft | 463 kts | 319° |
| 2026-05-04 16:52 | 46.48010 | 6.65222 | 40030 ft | 470 kts | 328° |
| 2026-05-04 16:53 | 46.56909 | 6.59091 | 40030 ft | 471 kts | 329° |
| 2026-05-04 16:54 | 46.68686 | 6.50826 | 40031 ft | 470 kts | 329° |
| 2026-05-04 16:55 | 46.86378 | 6.38204 | 40023 ft | 473 kts | 328° |
| 2026-05-04 16:56 | 47.33703 | 6.04134 | 39971 ft | 479 kts | 335° |
| 2026-05-04 16:57 | 47.41237 | 6.02275 | 40004 ft | 490 kts | 357° |
| 2026-05-04 16:57 | 47.48065 | 6.02932 | 39999 ft | 491 kts | 1° |
| 2026-05-04 16:58 | 47.61658 | 6.03735 | 39990 ft | 487 kts | 352° |
| 2026-05-04 16:59 | 47.68104 | 6.01431 | 39992 ft | 474 kts | 331° |
| 2026-05-04 17:00 | 47.89113 | 5.87677 | 39983 ft | 480 kts | 335° |
| 2026-05-04 17:01 | 48.44549 | 5.57548 | 39955 ft | 480 kts | 335° |
| 2026-05-04 17:02 | 48.94676 | 5.29642 | 39945 ft | 482 kts | 335° |
| 2026-05-04 17:03 | 49.32293 | 5.08267 | 39950 ft | 484 kts | 335° |
| 2026-05-04 17:03 | 49.70195 | 4.86422 | 39952 ft | 485 kts | 335° |
| 2026-05-04 17:04 | 50.20618 | 4.56738 | 39946 ft | 484 kts | 335° |
| 2026-05-04 17:05 | 50.34134 | 4.48754 | 39965 ft | 483 kts | 336° |
| 2026-05-04 17:06 | 50.43563 | 4.43112 | 39691 ft | 484 kts | 336° |
| 2026-05-04 17:07 | 50.49796 | 4.39361 | 38268 ft | 480 kts | 336° |
| 2026-05-04 17:07 | 50.51904 | 4.38091 | 37830 ft | 481 kts | 336° |
| 2026-05-04 17:07 | 50.56062 | 4.35578 | 37037 ft | 484 kts | 336° |
| 2026-05-04 17:07 | 50.59219 | 4.33667 | 36478 ft | 486 kts | 335° |
| 2026-05-04 17:08 | 50.62383 | 4.31749 | 35943 ft | 487 kts | 335° |
| 2026-05-04 17:08 | 50.68720 | 4.27899 | 34782 ft | 490 kts | 335° |
| 2026-05-04 17:08 | 50.71914 | 4.25950 | 34195 ft | 492 kts | 335° |
| 2026-05-04 17:09 | 50.75112 | 4.23985 | 33545 ft | 494 kts | 335° |
| 2026-05-04 17:09 | 50.78280 | 4.22036 | 32906 ft | 495 kts | 335° |
| 2026-05-04 17:09 | 50.81513 | 4.20049 | 32304 ft | 495 kts | 335° |
| 2026-05-04 17:10 | 50.87934 | 4.16110 | 31095 ft | 494 kts | 336° |
| 2026-05-04 17:10 | 50.97523 | 4.10211 | 29064 ft | 491 kts | 336° |
| 2026-05-04 17:11 | 51.00700 | 4.08252 | 28396 ft | 486 kts | 336° |
| 2026-05-04 17:11 | 51.03844 | 4.06312 | 27731 ft | 481 kts | 336° |
| 2026-05-04 17:11 | 51.09979 | 4.02415 | 26504 ft | 471 kts | 332° |
| 2026-05-04 17:12 | 51.12778 | 3.99874 | 25872 ft | 453 kts | 324° |
| 2026-05-04 17:12 | 51.17672 | 3.94132 | 24722 ft | 421 kts | 320° |
| 2026-05-04 17:13 | 51.24798 | 3.87032 | 22894 ft | 395 kts | 345° |
| 2026-05-04 17:14 | 51.32835 | 3.86329 | 21161 ft | 381 kts | 0° |
| 2026-05-04 17:14 | 51.35484 | 3.86386 | 20594 ft | 377 kts | 0° |
| 2026-05-04 17:14 | 51.40652 | 3.86403 | 19513 ft | 365 kts | 359° |
| 2026-05-04 17:15 | 51.43184 | 3.86372 | 18987 ft | 358 kts | 359° |
| 2026-05-04 17:15 | 51.48029 | 3.86278 | 17926 ft | 343 kts | 358° |
| 2026-05-04 17:16 | 51.52701 | 3.86174 | 16888 ft | 328 kts | 358° |
| 2026-05-04 17:16 | 51.59385 | 3.86022 | 15490 ft | 312 kts | 358° |
| 2026-05-04 17:17 | 51.61542 | 3.85972 | 15047 ft | 307 kts | 358° |
| 2026-05-04 17:17 | 51.67807 | 3.85825 | 13742 ft | 296 kts | 358° |
| 2026-05-04 17:18 | 51.69862 | 3.85865 | 13251 ft | 293 kts | 4° |
| 2026-05-04 17:18 | 51.73680 | 3.87794 | 12414 ft | 290 kts | 32° |
| 2026-05-04 17:19 | 51.76776 | 3.91937 | 11618 ft | 288 kts | 41° |
| 2026-05-04 17:19 | 51.79710 | 3.96272 | 10916 ft | 284 kts | 41° |
| 2026-05-04 17:20 | 51.82630 | 4.00556 | 10668 ft | 283 kts | 41° |
| 2026-05-04 17:20 | 51.85559 | 4.04830 | 10468 ft | 283 kts | 41° |
| 2026-05-04 17:20 | 51.87019 | 4.06958 | 10361 ft | 282 kts | 41° |
| 2026-05-04 17:21 | 51.89911 | 4.11154 | 10109 ft | 281 kts | 41° |
| 2026-05-04 17:21 | 51.92815 | 4.15372 | 9975 ft | 280 kts | 41° |
| 2026-05-04 17:22 | 51.94261 | 4.17478 | 9859 ft | 277 kts | 41° |
| 2026-05-04 17:22 | 51.95699 | 4.19575 | 9342 ft | 277 kts | 41° |
| 2026-05-04 17:23 | 51.99966 | 4.25809 | 8040 ft | 274 kts | 41° |
| 2026-05-04 17:23 | 52.01361 | 4.27901 | 7656 ft | 272 kts | 47° |
| 2026-05-04 17:23 | 52.02968 | 4.33319 | 7039 ft | 262 kts | 71° |
| 2026-05-04 17:24 | 52.03541 | 4.36060 | 6888 ft | 250 kts | 70° |
| 2026-05-04 17:24 | 52.05335 | 4.43875 | 5940 ft | 243 kts | 67° |
| 2026-05-04 17:25 | 52.05953 | 4.46398 | 5624 ft | 241 kts | 67° |
| 2026-05-04 17:25 | 52.07214 | 4.51427 | 4971 ft | 238 kts | 66° |
| 2026-05-04 17:26 | 52.08465 | 4.56346 | 4479 ft | 229 kts | 66° |
| 2026-05-04 17:26 | 52.10211 | 4.63191 | 3296 ft | 201 kts | 66° |
| 2026-05-04 17:27 | 52.11239 | 4.67215 | 2515 ft | 183 kts | 65° |
| 2026-05-04 17:27 | 52.12158 | 4.70822 | 1979 ft | 157 kts | 63° |
| 2026-05-04 17:28 | 52.13019 | 4.74045 | 2010 ft | 156 kts | 57° |
| 2026-05-04 17:29 | 52.15731 | 4.76211 | 1981 ft | 154 kts | 9° |
| 2026-05-04 17:29 | 52.18942 | 4.76794 | 1996 ft | 161 kts | 2° |
| 2026-05-04 17:30 | 52.22055 | 4.77063 | 1397 ft | 135 kts | 5° |
| 2026-05-04 17:31 | 52.23866 | 4.77234 | 1068 ft | 127 kts | 4° |
| 2026-05-04 17:31 | 52.26523 | 4.77478 | 418 ft | 121 kts | 3° |
| 2026-05-04 17:32 | 52.28244 | 4.77644 | 178 ft | 117 kts | 5° |
| 2026-05-04 17:33 | 52.30264 | 4.77844 | 7 ft | 48 kts | 3° |
| 2026-05-04 17:33 | 52.30437 | 4.77860 | 8 ft | 29 kts | 3° |
| 2026-05-04 17:34 | 52.30968 | 4.77796 | 5 ft | 22 kts | 334° |
| 2026-05-04 17:34 | 52.31095 | 4.77693 | 6 ft | 19 kts | 333° |
| 2026-05-04 17:35 | 52.31405 | 4.77650 | 7 ft | 13 kts | 354° |
| 2026-05-04 17:35 | 52.31559 | 4.77470 | 6 ft | 15 kts | 299° |
| 2026-05-04 17:35 | 52.31574 | 4.77266 | 6 ft | 21 kts | 266° |
| 2026-05-04 17:36 | 52.31564 | 4.77022 | 6 ft | 21 kts | 266° |
| 2026-05-04 17:36 | 52.31558 | 4.76782 | 6 ft | 21 kts | 268° |
| 2026-05-04 17:36 | 52.31539 | 4.76684 | 6 ft | 2 kts | 218° |
| 2026-05-04 17:36 | 52.31527 | 4.76681 | 6 ft | 3 kts | 188° |
| 2026-05-04 17:37 | 52.31481 | 4.76669 | 6 ft | 8 kts | 193° |
| 2026-05-04 17:37 | 52.31435 | 4.76628 | 6 ft | 8 kts | 212° |
| 2026-05-04 17:37 | 52.31388 | 4.76580 | 7 ft | 8 kts | 211° |
| 2026-05-04 17:37 | 52.31339 | 4.76531 | 6 ft | 8 kts | 211° |
| 2026-05-04 17:38 | 52.31320 | 4.76516 | 6 ft | 1 kts | 194° |
| 2026-05-04 17:38 | 52.31307 | 4.76526 | 6 ft | 4 kts | 154° |
| 2026-05-04 17:38 | 52.31286 | 4.76557 | 6 ft | 4 kts | 130° |
| 2026-05-04 17:38 | 52.31272 | 4.76590 | 6 ft | 3 kts | 123° |
| 2026-05-04 17:39 | 52.31266 | 4.76606 | 6 ft | 0 kts | 123° |